createdAt,value
2019-06-15T00:01:05.931Z,22.34
2019-06-15T00:03:34.496Z,22.26
2019-06-15T00:06:03.040Z,22.42
2019-06-15T00:08:31.606Z,22.46
2019-06-15T00:11:00.176Z,22.37
2019-06-15T00:13:28.732Z,22.23
2019-06-15T00:15:57.542Z,22.30
2019-06-15T00:18:26.065Z,22.38
2019-06-15T00:20:54.581Z,22.17
2019-06-15T00:23:23.393Z,22.23
2019-06-15T00:25:51.966Z,22.33
2019-06-15T00:28:20.499Z,22.45
2019-06-15T00:30:49.025Z,22.50
2019-06-15T00:33:17.538Z,22.53
2019-06-15T00:35:46.109Z,22.39
2019-06-15T00:38:14.673Z,22.41
2019-06-15T00:40:43.307Z,22.43
2019-06-15T00:43:11.850Z,22.46
2019-06-15T00:45:40.357Z,22.17
2019-06-15T00:48:08.903Z,21.22
2019-06-15T00:50:37.518Z,21.39
2019-06-15T00:53:06.077Z,21.45
2019-06-15T00:55:34.572Z,21.45
2019-06-15T00:58:03.256Z,21.74
2019-06-15T01:00:31.820Z,21.90
2019-06-15T01:03:00.474Z,22.05
2019-06-15T01:05:29.001Z,22.08
2019-06-15T01:07:57.884Z,22.13
2019-06-15T01:10:26.684Z,22.27
2019-06-15T01:12:55.204Z,22.36
2019-06-15T01:15:23.745Z,22.53
2019-06-15T01:17:52.250Z,22.53
2019-06-15T01:20:20.787Z,22.63
2019-06-15T01:22:49.286Z,22.55
2019-06-15T01:25:17.799Z,22.51
2019-06-15T01:27:46.318Z,22.27
2019-06-15T01:30:16.436Z,22.00
2019-06-15T01:32:45.231Z,22.15
2019-06-15T01:35:13.751Z,22.17
2019-06-15T01:37:42.274Z,22.15
2019-06-15T01:40:10.878Z,22.19
2019-06-15T01:42:39.391Z,22.21
2019-06-15T01:45:07.987Z,21.89
2019-06-15T01:47:36.584Z,21.42
2019-06-15T01:50:05.162Z,21.47
2019-06-15T01:52:34.036Z,21.84
2019-06-15T01:55:02.563Z,21.98
2019-06-15T01:57:31.134Z,22.13
2019-06-15T01:59:59.694Z,22.19
2019-06-15T02:02:28.256Z,22.38
2019-06-15T02:04:56.867Z,22.49
2019-06-15T02:07:25.356Z,22.46
2019-06-15T02:09:54.274Z,22.40
2019-06-15T02:12:22.827Z,22.53
2019-06-15T02:14:51.380Z,22.45
2019-06-15T02:17:19.880Z,22.43
2019-06-15T02:19:48.464Z,22.38
2019-06-15T02:22:17.152Z,22.17
2019-06-15T02:24:45.725Z,22.09
2019-06-15T02:27:14.296Z,22.23
2019-06-15T02:29:42.792Z,22.29
2019-06-15T02:32:11.363Z,22.34
2019-06-15T02:34:39.852Z,22.26
2019-06-15T02:37:08.425Z,22.29
2019-06-15T02:39:36.943Z,22.32
2019-06-15T02:42:05.620Z,22.36
2019-06-15T02:44:34.118Z,22.33
2019-06-15T02:47:02.659Z,22.14
2019-06-15T02:49:31.157Z,21.71
2019-06-15T02:51:59.641Z,21.68
2019-06-15T02:54:28.136Z,21.92
2019-06-15T02:56:56.706Z,21.99
2019-06-15T02:59:25.254Z,21.92
2019-06-15T03:01:53.757Z,21.91
2019-06-15T03:04:22.252Z,21.95
2019-06-15T03:06:50.843Z,21.50
2019-06-15T03:09:19.428Z,21.53
2019-06-15T03:11:47.923Z,21.80
2019-06-15T03:14:16.464Z,21.98
2019-06-15T03:16:45.018Z,21.66
2019-06-15T03:19:13.459Z,21.17
2019-06-15T03:21:41.998Z,21.41
2019-06-15T03:24:11.881Z,21.49
2019-06-15T03:26:40.428Z,21.66
2019-06-15T03:29:08.995Z,21.83
2019-06-15T03:31:37.500Z,21.74
2019-06-15T03:34:05.977Z,21.24
2019-06-15T03:36:34.561Z,21.60
2019-06-15T03:39:03.441Z,21.73
2019-06-15T03:41:32.008Z,21.63
2019-06-15T03:44:00.576Z,21.66
2019-06-15T03:46:29.120Z,21.55
2019-06-15T03:48:57.619Z,21.55
2019-06-15T03:51:26.198Z,21.72
2019-06-15T03:53:54.630Z,21.73
2019-06-15T03:56:23.107Z,21.77
2019-06-15T03:58:51.597Z,21.94
2019-06-15T04:01:29.851Z,22.03
2019-06-15T04:03:58.398Z,21.98
2019-06-15T04:06:26.888Z,22.02
2019-06-15T04:08:55.388Z,22.08
2019-06-15T04:11:23.889Z,22.16
2019-06-15T04:13:52.385Z,22.12
2019-06-15T04:16:20.870Z,22.38
2019-06-15T04:18:49.355Z,22.67
2019-06-15T04:21:17.858Z,22.94
2019-06-15T04:23:46.351Z,23.27
2019-06-15T04:26:15.134Z,23.04
2019-06-15T04:28:43.688Z,23.11
2019-06-15T04:31:12.218Z,23.58
2019-06-15T04:33:40.717Z,23.78
2019-06-15T04:36:09.500Z,23.80
2019-06-15T04:38:38.054Z,23.83
2019-06-15T04:41:06.595Z,23.69
2019-06-15T04:43:35.395Z,22.84
2019-06-15T04:46:03.891Z,22.95
2019-06-15T04:48:32.435Z,22.17
2019-06-15T04:51:01.213Z,22.98
2019-06-15T04:53:29.711Z,23.48
2019-06-15T04:55:58.208Z,23.73
2019-06-15T04:58:26.715Z,23.64
2019-06-15T05:00:55.290Z,23.07
2019-06-15T05:03:23.864Z,23.08
2019-06-15T05:05:52.395Z,23.26
2019-06-15T05:08:21.202Z,22.49
2019-06-15T05:10:49.699Z,22.52
2019-06-15T05:13:18.229Z,22.64
2019-06-15T05:15:46.730Z,22.96
2019-06-15T05:18:15.260Z,22.84
2019-06-15T05:20:43.762Z,23.06
2019-06-15T05:23:12.302Z,23.55
2019-06-15T05:25:40.801Z,24.01
2019-06-15T05:28:09.411Z,24.19
2019-06-15T05:30:37.961Z,24.16
2019-06-15T05:33:06.460Z,24.23
2019-06-15T05:35:35.318Z,23.59
2019-06-15T05:38:03.848Z,23.26
2019-06-15T05:40:32.621Z,23.54
2019-06-15T05:43:01.180Z,22.64
2019-06-15T05:45:29.919Z,23.28
2019-06-15T05:47:58.759Z,24.23
2019-06-15T05:50:27.248Z,25.12
2019-06-15T05:52:55.741Z,25.38
2019-06-15T05:55:24.249Z,26.19
2019-06-15T05:57:53.020Z,26.56
2019-06-15T06:00:21.558Z,27.49
2019-06-15T06:02:50.119Z,28.12
2019-06-15T06:05:19.842Z,27.84
2019-06-15T06:07:48.323Z,27.94
2019-06-15T06:10:17.069Z,27.66
2019-06-15T06:12:45.564Z,27.76
2019-06-15T06:15:14.746Z,28.01
2019-06-15T06:17:43.825Z,28.48
2019-06-15T06:20:12.832Z,29.09
2019-06-15T06:22:41.319Z,29.13
2019-06-15T06:25:09.848Z,29.04
2019-06-15T06:27:38.347Z,28.94
2019-06-15T06:30:07.756Z,28.83
2019-06-15T06:32:36.293Z,27.42
2019-06-15T06:35:05.008Z,27.42
2019-06-15T06:37:33.521Z,27.91
2019-06-15T06:40:02.128Z,28.11
2019-06-15T06:42:30.681Z,28.30
2019-06-15T06:44:59.501Z,28.80
2019-06-15T06:47:27.981Z,28.44
2019-06-15T06:49:56.532Z,28.43
2019-06-15T06:52:25.022Z,28.27
2019-06-15T06:54:53.661Z,28.27
2019-06-15T06:57:22.374Z,27.62
2019-06-15T06:59:50.863Z,26.75
2019-06-15T07:02:19.716Z,26.39
2019-06-15T07:04:48.212Z,26.01
2019-06-15T07:07:16.696Z,25.99
2019-06-15T07:09:45.579Z,25.96
2019-06-15T07:12:14.173Z,25.86
2019-06-15T07:14:42.928Z,25.56
2019-06-15T07:17:11.449Z,25.74
2019-06-15T07:19:39.944Z,25.42
2019-06-15T07:22:08.527Z,26.53
2019-06-15T07:24:37.040Z,27.25
2019-06-15T07:27:05.527Z,27.77
2019-06-15T07:29:34.083Z,28.10
2019-06-15T07:32:02.659Z,28.34
2019-06-15T07:34:31.140Z,28.49
2019-06-15T07:37:01.690Z,28.61
2019-06-15T07:39:29.984Z,28.69
2019-06-15T07:41:58.489Z,28.89
2019-06-15T07:44:27.095Z,29.32
2019-06-15T07:46:55.575Z,29.20
2019-06-15T07:49:24.344Z,29.46
2019-06-15T07:51:53.109Z,28.81
2019-06-15T07:54:21.602Z,27.86
2019-06-15T07:56:50.090Z,27.10
2019-06-15T07:59:18.585Z,27.10
2019-06-15T08:01:47.093Z,28.09
2019-06-15T08:04:15.585Z,28.37
2019-06-15T08:06:44.317Z,28.66
2019-06-15T08:09:12.812Z,28.90
2019-06-15T08:11:41.309Z,28.31
2019-06-15T08:14:09.800Z,27.77
2019-06-15T08:16:38.290Z,28.24
2019-06-15T08:19:07.044Z,29.02
2019-06-15T08:21:35.823Z,29.66
2019-06-15T08:24:04.970Z,29.98
2019-06-15T08:26:33.607Z,29.38
2019-06-15T08:29:02.122Z,30.02
2019-06-15T08:31:30.706Z,29.93
2019-06-15T08:33:59.560Z,30.32
2019-06-15T08:36:28.176Z,30.23
2019-06-15T08:38:56.919Z,30.15
2019-06-15T08:41:25.443Z,30.57
2019-06-15T08:43:53.935Z,30.77
2019-06-15T08:46:22.411Z,30.56
2019-06-15T08:48:51.141Z,30.13
2019-06-15T08:51:19.636Z,30.40
2019-06-15T08:53:48.186Z,30.42
2019-06-15T08:56:16.685Z,31.11
2019-06-15T08:58:55.027Z,30.32
2019-06-15T09:01:15.744Z,30.54
2019-06-15T09:03:44.285Z,31.40
2019-06-15T09:06:13.436Z,31.92
2019-06-15T09:08:41.934Z,32.83
2019-06-15T09:11:10.442Z,32.78
2019-06-15T09:13:38.985Z,31.45
2019-06-15T09:16:07.475Z,30.85
2019-06-15T09:18:35.988Z,30.75
2019-06-15T09:21:04.477Z,30.50
2019-06-15T09:23:32.982Z,30.09
2019-06-15T09:26:01.488Z,29.38
2019-06-15T09:28:30.052Z,28.79
2019-06-15T09:30:58.970Z,28.82
2019-06-15T09:33:27.471Z,28.83
2019-06-15T09:35:55.972Z,30.47
2019-06-15T09:38:24.479Z,32.33
2019-06-15T09:40:52.975Z,32.25
2019-06-15T09:43:21.807Z,33.82
2019-06-15T09:45:50.304Z,35.11
2019-06-15T09:48:18.815Z,35.01
2019-06-15T09:50:47.296Z,35.74
2019-06-15T09:53:15.801Z,35.99
2019-06-15T09:55:44.538Z,36.51
2019-06-15T09:58:13.327Z,34.99
2019-06-15T10:00:41.836Z,33.31
2019-06-15T10:03:10.404Z,31.38
2019-06-15T10:05:39.270Z,34.25
2019-06-15T10:08:08.147Z,34.33
2019-06-15T10:10:36.913Z,35.58
2019-06-15T10:13:05.453Z,37.31
2019-06-15T10:15:33.961Z,37.56
2019-06-15T10:18:02.503Z,38.05
2019-06-15T10:20:30.979Z,40.46
2019-06-15T10:22:59.507Z,41.45
2019-06-15T10:25:28.061Z,41.29
2019-06-15T10:27:57.021Z,40.64
2019-06-15T10:30:25.825Z,42.42
2019-06-15T10:32:54.323Z,42.25
2019-06-15T10:35:23.069Z,39.58
2019-06-15T10:37:51.595Z,36.59
2019-06-15T10:40:20.347Z,34.47
2019-06-15T10:42:48.891Z,32.80
2019-06-15T10:45:17.415Z,32.18
2019-06-15T10:47:45.938Z,32.01
2019-06-15T10:50:14.464Z,32.51
2019-06-15T10:52:43.045Z,34.53
2019-06-15T10:55:11.550Z,34.98
2019-06-15T10:57:40.360Z,34.21
2019-06-15T11:00:08.910Z,32.84
2019-06-15T11:02:37.657Z,31.38
2019-06-15T11:05:06.756Z,30.80
2019-06-15T11:07:35.509Z,31.19
2019-06-15T11:10:05.017Z,31.11
2019-06-15T11:12:45.414Z,31.24
2019-06-15T11:15:03.848Z,31.15
2019-06-15T11:17:32.994Z,31.91
2019-06-15T11:20:01.515Z,32.26
2019-06-15T11:22:30.046Z,32.46
2019-06-15T11:24:58.811Z,31.88
2019-06-15T11:27:27.325Z,31.83
2019-06-15T11:29:55.886Z,31.28
2019-06-15T11:32:24.399Z,31.10
2019-06-15T11:34:52.927Z,30.66
2019-06-15T11:37:21.441Z,30.34
2019-06-15T11:39:50.043Z,31.02
2019-06-15T11:42:18.729Z,30.75
2019-06-15T11:44:47.313Z,31.25
2019-06-15T11:47:15.799Z,31.49
2019-06-15T11:49:44.337Z,31.89
2019-06-15T11:52:13.112Z,31.71
2019-06-15T11:54:41.648Z,31.40
2019-06-15T11:57:10.151Z,30.86
2019-06-15T11:59:38.996Z,30.99
2019-06-15T12:02:07.494Z,31.52
2019-06-15T12:04:36.121Z,31.44
2019-06-15T12:07:04.618Z,31.34
2019-06-15T12:09:33.161Z,31.75
2019-06-15T12:12:01.683Z,31.70
2019-06-15T12:14:30.213Z,31.78
2019-06-15T12:16:58.712Z,31.49
2019-06-15T12:19:27.224Z,31.57
2019-06-15T12:21:55.818Z,31.86
2019-06-15T12:24:24.291Z,31.40
2019-06-15T12:26:53.131Z,31.45
2019-06-15T12:29:21.637Z,31.60
2019-06-15T12:31:50.237Z,31.33
2019-06-15T12:34:21.129Z,31.39
2019-06-15T12:36:48.981Z,31.38
2019-06-15T12:39:17.517Z,31.63
2019-06-15T12:41:46.061Z,31.66
2019-06-15T12:44:14.955Z,31.81
2019-06-15T12:46:43.795Z,31.99
2019-06-15T12:49:12.290Z,32.22
2019-06-15T12:51:41.025Z,32.04
2019-06-15T12:54:09.583Z,31.59
2019-06-15T12:56:38.129Z,32.00
2019-06-15T12:59:06.635Z,31.89
2019-06-15T13:01:35.201Z,31.60
2019-06-15T13:04:03.710Z,31.21
2019-06-15T13:06:32.227Z,30.86
2019-06-15T13:09:00.729Z,31.74
2019-06-15T13:11:29.246Z,31.58
2019-06-15T13:13:57.813Z,31.60
2019-06-15T13:16:38.589Z,32.18
2019-06-15T13:18:56.816Z,32.28
2019-06-15T13:21:25.326Z,31.83
2019-06-15T13:23:54.076Z,31.94
2019-06-15T13:26:22.610Z,31.79
2019-06-15T13:28:51.367Z,31.97
2019-06-15T13:31:20.190Z,32.31
2019-06-15T13:33:48.706Z,32.72
2019-06-15T13:36:17.235Z,33.07
2019-06-15T13:38:45.752Z,32.97
2019-06-15T13:41:14.280Z,32.62
2019-06-15T13:43:42.877Z,33.04
2019-06-15T13:46:11.627Z,33.20
2019-06-15T13:48:40.130Z,33.14
2019-06-15T13:51:08.729Z,33.17
2019-06-15T13:53:37.300Z,33.66
2019-06-15T13:56:05.804Z,33.80
2019-06-15T13:58:34.309Z,33.62
2019-06-15T14:01:02.874Z,33.70
2019-06-15T14:03:31.741Z,33.87
2019-06-15T14:06:00.263Z,33.95
2019-06-15T14:08:29.114Z,34.04
2019-06-15T14:10:57.970Z,33.66
2019-06-15T14:13:26.499Z,33.03
2019-06-15T14:15:55.384Z,32.36
2019-06-15T14:18:23.901Z,31.63
2019-06-15T14:20:52.409Z,31.21
2019-06-15T14:23:20.936Z,31.46
2019-06-15T14:25:49.448Z,30.88
2019-06-15T14:28:18.310Z,31.33
2019-06-15T14:30:46.871Z,31.30
2019-06-15T14:33:15.373Z,31.25
2019-06-15T14:35:44.230Z,31.00
2019-06-15T14:38:13.061Z,30.56
2019-06-15T14:40:41.661Z,30.50
2019-06-15T14:43:10.169Z,30.88
2019-06-15T14:45:38.722Z,30.47
2019-06-15T14:48:07.223Z,30.39
2019-06-15T14:50:35.799Z,30.33
2019-06-15T14:53:04.326Z,30.69
2019-06-15T14:55:32.826Z,30.48
2019-06-15T14:58:01.659Z,30.92
2019-06-15T15:00:30.507Z,31.20
2019-06-15T15:02:59.016Z,31.38
2019-06-15T15:05:27.699Z,30.61
2019-06-15T15:07:56.336Z,30.32
2019-06-15T15:10:26.711Z,30.14
2019-06-15T15:12:56.648Z,30.32
2019-06-15T15:15:25.417Z,30.67
2019-06-15T15:17:53.968Z,30.98
2019-06-15T15:20:22.498Z,31.61
2019-06-15T15:22:51.252Z,31.90
2019-06-15T15:25:19.745Z,31.96
2019-06-15T15:27:48.249Z,32.21
2019-06-15T15:30:27.120Z,32.05
2019-06-15T15:32:57.183Z,32.40
2019-06-15T15:35:26.892Z,32.39
2019-06-15T15:37:56.719Z,31.72
2019-06-15T15:40:27.475Z,31.76
2019-06-15T15:42:56.255Z,31.59
2019-06-15T15:45:26.258Z,31.46
2019-06-15T15:47:54.897Z,31.39
2019-06-15T15:50:26.062Z,31.11
2019-06-15T15:52:53.654Z,30.85
2019-06-15T15:55:22.339Z,31.38
2019-06-15T15:57:50.947Z,31.44
2019-06-15T16:00:30.549Z,31.65
2019-06-15T16:02:59.080Z,32.02
2019-06-15T16:05:27.952Z,31.64
2019-06-15T16:07:56.974Z,31.41
2019-06-15T16:10:26.645Z,31.09
2019-06-15T16:12:56.795Z,30.83
2019-06-15T16:15:26.488Z,30.84
2019-06-15T16:17:56.325Z,30.79
2019-06-15T16:20:26.334Z,30.49
2019-06-15T16:22:56.527Z,30.43
2019-06-15T16:25:26.633Z,30.17
2019-06-15T16:27:56.647Z,29.99
2019-06-15T16:30:48.386Z,30.58
2019-06-15T16:33:04.002Z,31.01
2019-06-15T16:35:31.391Z,30.93
2019-06-15T16:37:59.915Z,31.17
2019-06-15T16:40:38.185Z,31.80
2019-06-15T16:43:07.092Z,31.56
2019-06-15T16:45:35.851Z,31.21
2019-06-15T16:48:06.352Z,31.26
2019-06-15T16:50:36.677Z,31.28
2019-06-15T16:53:05.190Z,31.05
2019-06-15T16:55:36.548Z,30.61
2019-06-15T16:58:07.112Z,30.72
2019-06-15T17:00:36.329Z,30.57
2019-06-15T17:03:19.951Z,30.59
2019-06-15T17:05:36.217Z,30.50
2019-06-15T17:08:06.962Z,30.47
2019-06-15T17:10:38.421Z,30.86
2019-06-15T17:13:06.991Z,31.04
2019-06-15T17:15:37.118Z,31.18
2019-06-15T17:18:05.855Z,31.11
2019-06-15T17:20:41.068Z,31.03
2019-06-15T17:23:09.594Z,30.86
2019-06-15T17:25:38.202Z,30.64
2019-06-15T17:28:06.723Z,30.51
2019-06-15T17:30:37.069Z,30.44
2019-06-15T17:33:08.217Z,30.27
2019-06-15T17:35:36.302Z,30.20
2019-06-15T17:38:04.760Z,30.12
2019-06-15T17:40:33.482Z,30.07
2019-06-15T17:43:02.229Z,30.08
2019-06-15T17:45:30.758Z,30.02
2019-06-15T17:47:59.216Z,29.86
2019-06-15T17:50:36.315Z,29.68
2019-06-15T17:53:06.944Z,29.55
2019-06-15T17:55:36.686Z,29.51
2019-06-15T17:58:06.551Z,29.57
2019-06-15T18:00:46.958Z,29.55
2019-06-15T18:03:16.969Z,29.48
2019-06-15T18:05:47.998Z,29.31
2019-06-15T18:08:16.754Z,29.28
2019-06-15T18:10:47.738Z,29.28
2019-06-15T18:13:17.064Z,29.27
2019-06-15T18:15:47.583Z,29.16
2019-06-15T18:18:16.980Z,29.15
2019-06-15T18:20:45.785Z,29.26
2019-06-15T18:23:16.968Z,29.24
2019-06-15T18:25:46.582Z,29.21
2019-06-15T18:28:17.142Z,29.25
2019-06-15T18:30:46.613Z,29.20
2019-06-15T18:33:16.341Z,29.19
2019-06-15T18:35:47.281Z,29.03
2019-06-15T18:38:15.269Z,28.95
2019-06-15T18:40:43.785Z,28.96
2019-06-15T18:43:12.324Z,28.96
2019-06-15T18:45:40.817Z,28.83
2019-06-15T18:48:10.022Z,28.72
2019-06-15T18:50:39.113Z,28.70
2019-06-15T18:53:07.667Z,28.64
2019-06-15T18:55:36.508Z,28.59
2019-06-15T18:58:05.476Z,28.57
2019-06-15T19:00:33.967Z,28.62
2019-06-15T19:03:02.506Z,28.62
2019-06-15T19:05:31.011Z,28.64
2019-06-15T19:07:59.803Z,28.62
2019-06-15T19:10:32.648Z,28.62
2019-06-15T19:13:01.207Z,28.64
2019-06-15T19:15:30.103Z,28.57
2019-06-15T19:17:58.952Z,28.49
2019-06-15T19:20:27.754Z,28.36
2019-06-15T19:22:56.785Z,28.30
2019-06-15T19:25:27.039Z,28.21
2019-06-15T19:27:55.594Z,28.08
2019-06-15T19:30:26.341Z,27.98
2019-06-15T19:32:56.526Z,27.94
2019-06-15T19:35:26.330Z,27.90
2019-06-15T19:37:56.725Z,27.88
2019-06-15T19:40:26.765Z,27.83
2019-06-15T19:42:56.986Z,27.77
2019-06-15T19:45:26.770Z,27.68
2019-06-15T19:47:55.682Z,27.57
2019-06-15T19:50:26.674Z,27.34
2019-06-15T19:52:56.521Z,27.20
2019-06-15T19:55:26.820Z,27.18
2019-06-15T19:57:56.847Z,27.11
2019-06-15T20:00:27.062Z,27.06
2019-06-15T20:02:57.290Z,26.87
2019-06-15T20:05:28.628Z,26.76
2019-06-15T20:07:57.014Z,26.72
2019-06-15T20:10:26.650Z,26.61
2019-06-15T20:12:56.244Z,26.45
2019-06-15T20:15:26.271Z,26.41
2019-06-15T20:17:56.967Z,26.27
2019-06-15T20:20:26.652Z,26.18
2019-06-15T20:22:56.087Z,26.06
2019-06-15T20:25:26.693Z,26.04
2019-06-15T20:27:56.409Z,26.07
2019-06-15T20:30:24.924Z,25.99
2019-06-15T20:32:53.437Z,25.92
2019-06-15T20:35:22.279Z,25.68
2019-06-15T20:37:50.793Z,25.75
2019-06-15T20:40:19.310Z,25.79
2019-06-15T20:42:47.816Z,25.77
2019-06-15T20:45:16.621Z,25.77
2019-06-15T20:47:47.775Z,25.77
2019-06-15T20:50:25.478Z,25.68
2019-06-15T20:52:47.153Z,25.45
2019-06-15T20:55:16.299Z,25.24
2019-06-15T20:57:46.078Z,25.15
2019-06-15T21:00:16.747Z,25.27
2019-06-15T21:02:45.249Z,25.23
2019-06-15T21:05:30.245Z,25.12
2019-06-15T21:07:46.569Z,25.09
2019-06-15T21:10:16.015Z,25.13
2019-06-15T21:12:46.909Z,25.14
2019-06-15T21:15:14.925Z,25.12
2019-06-15T21:17:43.420Z,25.17
2019-06-15T21:20:12.900Z,25.07
2019-06-15T21:22:41.392Z,24.79
2019-06-15T21:25:10.003Z,24.68
2019-06-15T21:27:38.842Z,24.74
2019-06-15T21:30:07.480Z,24.89
2019-06-15T21:32:37.033Z,24.69
2019-06-15T21:35:06.615Z,24.82
2019-06-15T21:37:37.071Z,24.90
2019-06-15T21:40:06.063Z,24.78
2019-06-15T21:42:36.179Z,24.57
2019-06-15T21:45:07.571Z,24.71
2019-06-15T21:47:37.119Z,24.85
2019-06-15T21:50:06.328Z,24.90
2019-06-15T21:52:36.416Z,24.89
2019-06-15T21:55:06.982Z,24.75
2019-06-15T21:57:36.505Z,24.46
2019-06-15T22:02:30.035Z,23.93
2019-06-15T22:04:58.553Z,23.80
2019-06-15T22:07:27.072Z,23.82
2019-06-15T22:09:55.567Z,24.23
2019-06-15T22:12:24.062Z,24.45
2019-06-15T22:14:52.555Z,24.52
2019-06-15T22:17:21.038Z,24.55
2019-06-15T22:19:49.541Z,24.42
2019-06-15T22:22:18.019Z,24.52
2019-06-15T22:24:47.010Z,24.56
2019-06-15T22:27:17.107Z,24.46
2019-06-15T22:29:47.256Z,24.45
2019-06-15T22:32:16.577Z,24.47
2019-06-15T22:34:47.055Z,24.26
2019-06-15T22:37:17.312Z,24.29
2019-06-15T22:39:46.631Z,24.24
2019-06-15T22:42:16.817Z,24.22
2019-06-15T22:44:46.423Z,24.16
2019-06-15T22:47:16.850Z,24.18
2019-06-15T22:49:46.827Z,24.21
2019-06-15T22:52:17.105Z,24.32
2019-06-15T22:54:46.524Z,24.40
2019-06-15T22:57:16.707Z,24.13
2019-06-15T22:59:46.161Z,24.01
2019-06-15T23:02:16.773Z,24.09
2019-06-15T23:04:47.100Z,23.91
2019-06-15T23:07:16.172Z,23.85
2019-06-15T23:09:46.814Z,23.78
2019-06-15T23:12:14.963Z,23.81
2019-06-15T23:14:46.446Z,23.90
2019-06-15T23:17:13.985Z,23.89
2019-06-15T23:19:42.458Z,23.78
2019-06-15T23:22:11.281Z,23.81
2019-06-15T23:24:39.777Z,23.80
2019-06-15T23:27:08.264Z,23.59
2019-06-15T23:29:36.916Z,23.74
2019-06-15T23:32:06.296Z,23.72
2019-06-15T23:34:35.322Z,23.81
2019-06-15T23:37:06.766Z,23.96
2019-06-15T23:39:36.180Z,23.85
2019-06-15T23:42:06.123Z,23.63
2019-06-15T23:44:36.161Z,23.57
2019-06-15T23:47:04.775Z,23.74
2019-06-15T23:49:33.297Z,23.80
2019-06-15T23:52:01.807Z,23.85
2019-06-15T23:54:30.316Z,23.96
2019-06-15T23:56:58.802Z,23.99
2019-06-15T23:59:27.301Z,24.13
